Terminal Aerodrome Forecast
Issued by NWS Grand Forks, ND

Home | Current Version | Previous Version | Text Only | Print | Product List | Glossary Off
Versions: 1 2 3 4 5 6 7 8 9 10 11 12 13 14 15

495
FTUS43 KFGF 152120 AAA
TAFGFK
TAF AMD
KGFK 152120Z 1521/1618 35023G33KT 1SM BLSN BKN010
      TEMPO 1521/1523 1/2SM BLSN BKN008
     FM152300 35018G26KT 2SM BLSN SCT010 BKN220
     FM160300 34014KT P6SM SCT220
     FM161100 26008KT P6SM SCT035=

USA.gov is the U.S. government's official web portal to all federal, state and local government web resources and services.